createdAt,value
2022-09-05T00:02:04.155Z,122.60
2022-09-05T00:04:47.455Z,122.63
2022-09-05T00:07:37.476Z,122.90
2022-09-05T00:11:39.851Z,122.87
2022-09-05T00:15:14.502Z,122.73
2022-09-05T00:21:08.186Z,122.40
2022-09-05T00:24:24.986Z,122.53
2022-09-05T00:25:14.864Z,122.73
2022-09-05T00:28:38.059Z,122.30
2022-09-05T00:32:01.593Z,122.50
2022-09-05T00:34:57.897Z,122.27
2022-09-05T00:37:40.335Z,122.67
2022-09-05T00:40:40.959Z,121.93
2022-09-05T00:43:19.230Z,122.37
2022-09-05T00:46:07.470Z,122.87
2022-09-05T00:49:13.324Z,122.53
2022-09-05T00:51:43.391Z,122.60
2022-09-05T00:54:44.639Z,122.27
2022-09-05T00:57:43.103Z,122.60
2022-09-05T01:00:25.353Z,122.80
2022-09-05T01:03:52.465Z,122.80
2022-09-05T01:07:06.197Z,122.87
2022-09-05T01:10:19.804Z,122.70
2022-09-05T01:13:09.285Z,122.70
2022-09-05T01:16:31.612Z,122.50
2022-09-05T01:19:32.856Z,122.90
2022-09-05T01:22:55.504Z,123.17
2022-09-05T01:25:54.889Z,123.17
2022-09-05T01:29:16.255Z,122.70
2022-09-05T01:32:22.531Z,122.70
2022-09-05T01:35:28.027Z,122.90
2022-09-05T01:38:27.185Z,123.10
2022-09-05T01:41:23.388Z,122.47
2022-09-05T01:44:14.772Z,123.03
2022-09-05T01:47:08.176Z,122.93
2022-09-05T01:50:26.494Z,122.70
2022-09-05T01:53:54.606Z,123.03
2022-09-05T01:57:19.674Z,122.90
2022-09-05T02:00:05.565Z,123.03
2022-09-05T02:02:51.296Z,122.67
2022-09-05T02:06:01.928Z,122.27
2022-09-05T02:09:06.373Z,122.63
2022-09-05T02:12:14.650Z,123.10
2022-09-05T02:14:45.473Z,122.80
2022-09-05T02:17:50.495Z,122.80
2022-09-05T02:20:33.901Z,122.43
2022-09-05T02:23:31.043Z,123.13
2022-09-05T02:26:23.364Z,122.63
2022-09-05T02:29:05.503Z,123.03
2022-09-05T02:32:45.397Z,122.90
2022-09-05T02:35:45.942Z,123.07
2022-09-05T02:45:00.090Z,123.17
2022-09-05T02:45:14.351Z,122.60
2022-09-05T02:45:18.879Z,123.23
2022-09-05T02:47:40.294Z,123.40
2022-09-05T02:57:23.317Z,123.33
2022-09-05T02:57:47.027Z,122.87
2022-09-05T02:58:05.288Z,123.03
2022-09-05T02:59:59.698Z,123.33
2022-09-05T03:02:43.155Z,122.47
2022-09-05T03:05:43.494Z,123.00
2022-09-05T03:08:43.954Z,123.23
2022-09-05T03:11:43.981Z,123.50
2022-09-05T03:14:33.864Z,122.90
2022-09-05T03:17:23.758Z,123.47
2022-09-05T03:20:42.600Z,122.90
2022-09-05T03:23:30.783Z,123.40
2022-09-05T03:26:21.710Z,122.97
2022-09-05T03:29:35.507Z,123.37
2022-09-05T03:32:53.744Z,123.30
2022-09-05T03:36:04.231Z,122.90
2022-09-05T03:39:22.559Z,123.70
2022-09-05T03:42:35.131Z,123.00
2022-09-05T03:45:46.407Z,122.97
2022-09-05T03:48:41.547Z,122.70
2022-09-05T03:57:07.615Z,122.97
2022-09-05T03:57:16.511Z,122.10
2022-09-05T03:58:22.696Z,122.50
2022-09-05T04:04:03.700Z,122.73
2022-09-05T04:08:19.425Z,121.97
2022-09-05T04:08:20.724Z,121.57
2022-09-05T04:11:21.980Z,122.67
2022-09-05T04:14:01.067Z,122.27
2022-09-05T04:16:51.298Z,122.43
2022-09-05T04:19:49.807Z,122.60
2022-09-05T04:22:46.868Z,121.70
2022-09-05T04:26:09.249Z,122.00
2022-09-05T04:29:35.440Z,121.77
2022-09-05T04:32:30.287Z,122.20
2022-09-05T04:35:15.748Z,121.90
2022-09-05T04:38:14.664Z,122.77
2022-09-05T04:41:03.346Z,122.17
2022-09-05T04:44:05.236Z,122.30
2022-09-05T04:46:48.288Z,123.07
2022-09-05T04:49:40.812Z,121.83
2022-09-05T04:53:08.328Z,121.77
2022-09-05T04:55:50.785Z,122.43
2022-09-05T05:01:08.298Z,122.17
2022-09-05T05:06:08.152Z,122.27
2022-09-05T05:06:16.274Z,121.90
2022-09-05T05:07:55.976Z,121.50
2022-09-05T05:11:13.119Z,122.40
2022-09-05T05:18:15.140Z,122.43
2022-09-05T05:18:16.391Z,121.80
2022-09-05T05:20:41.375Z,122.27
2022-09-05T05:23:19.001Z,121.77
2022-09-05T05:25:59.921Z,121.70
2022-09-05T05:29:01.799Z,122.07
2022-09-05T05:31:36.558Z,121.07
2022-09-05T05:34:24.599Z,121.80
2022-09-05T05:37:38.181Z,121.50
2022-09-05T05:40:17.759Z,121.40
2022-09-05T05:42:46.737Z,121.60
2022-09-05T05:45:30.855Z,121.30
2022-09-05T05:48:30.377Z,121.40
2022-09-05T05:51:38.369Z,121.57
2022-09-05T05:54:50.477Z,121.10
2022-09-05T05:58:05.013Z,121.20
2022-09-05T06:01:37.140Z,121.10
2022-09-05T06:04:45.588Z,121.17
2022-09-05T06:11:06.056Z,121.17
2022-09-05T06:15:02.952Z,120.60
2022-09-05T06:15:31.764Z,120.47
2022-09-05T06:18:54.061Z,120.40
2022-09-05T06:22:11.351Z,120.10
2022-09-05T06:25:26.310Z,119.97
2022-09-05T06:28:50.118Z,119.77
2022-09-05T06:32:01.922Z,119.80
2022-09-05T06:35:16.154Z,119.27
2022-09-05T06:38:20.114Z,119.43
2022-09-05T06:41:32.958Z,119.87
2022-09-05T06:44:36.074Z,119.50
2022-09-05T06:47:22.751Z,119.57
2022-09-05T06:50:27.146Z,118.70
2022-09-05T06:53:38.198Z,118.83
2022-09-05T06:56:38.086Z,118.60
2022-09-05T06:59:14.946Z,118.80
2022-09-05T07:02:08.464Z,118.60
2022-09-05T07:05:23.968Z,118.20
2022-09-05T07:07:54.299Z,118.60
2022-09-05T07:10:39.349Z,118.83
2022-09-05T07:13:37.945Z,118.63
2022-09-05T07:16:37.034Z,118.40
2022-09-05T07:19:33.324Z,118.37
2022-09-05T07:22:48.845Z,118.20
2022-09-05T07:25:26.290Z,116.67
2022-09-05T07:28:28.601Z,116.70
2022-09-05T07:31:27.382Z,117.20
2022-09-05T07:34:32.336Z,116.10
2022-09-05T07:37:22.499Z,116.10
2022-09-05T07:40:13.885Z,116.37
2022-09-05T07:43:14.253Z,115.40
2022-09-05T07:46:11.376Z,115.40
2022-09-05T07:48:48.704Z,114.87
2022-09-05T07:56:53.747Z,114.07
2022-09-05T07:57:04.795Z,114.20
2022-09-05T07:57:43.658Z,114.47
2022-09-05T08:03:45.675Z,114.40
2022-09-05T08:06:54.103Z,114.53
2022-09-05T08:10:05.335Z,114.50
2022-09-05T08:12:27.842Z,114.57
2022-09-05T08:15:10.228Z,114.43
2022-09-05T08:17:50.828Z,114.27
2022-09-05T08:20:51.461Z,113.67
2022-09-05T08:23:48.048Z,116.37
2022-09-05T08:26:44.079Z,115.60
2022-09-05T08:29:32.373Z,112.77
2022-09-05T08:32:13.984Z,112.00
2022-09-05T08:34:54.554Z,110.97
2022-09-05T08:37:26.476Z,111.27
2022-09-05T08:40:11.358Z,111.37
2022-09-05T08:46:35.340Z,110.87
2022-09-05T08:46:45.796Z,110.87
2022-09-05T08:49:38.043Z,111.90
2022-09-05T08:53:28.169Z,112.20
2022-09-05T08:56:20.434Z,113.50
2022-09-05T08:59:37.438Z,112.67
2022-09-05T09:02:47.030Z,112.47
2022-09-05T09:06:03.750Z,112.20
2022-09-05T09:08:50.755Z,112.67
2022-09-05T09:11:41.477Z,113.23
2022-09-05T09:14:31.554Z,113.27
2022-09-05T09:17:23.605Z,112.97
2022-09-05T09:20:22.851Z,112.50
2022-09-05T09:23:31.969Z,111.07
2022-09-05T09:26:16.929Z,111.07
2022-09-05T09:28:51.724Z,110.77
2022-09-05T09:32:02.939Z,110.00
2022-09-05T09:35:21.314Z,109.67
2022-09-05T09:38:09.898Z,109.10
2022-09-05T09:41:45.271Z,108.03
2022-09-05T09:44:57.906Z,107.13
2022-09-05T09:48:17.653Z,106.80
2022-09-05T09:51:22.575Z,107.70
2022-09-05T09:54:04.954Z,106.63
2022-09-05T09:57:39.026Z,106.70
2022-09-05T10:00:21.078Z,105.70
2022-09-05T10:10:05.983Z,106.27
2022-09-05T10:10:51.341Z,107.23
2022-09-05T10:10:52.850Z,107.37
2022-09-05T10:13:19.485Z,107.00
2022-09-05T10:16:14.488Z,105.67
2022-09-05T10:22:49.282Z,104.00
2022-09-05T10:25:58.242Z,104.20
2022-09-05T10:29:11.780Z,103.40
2022-09-05T10:35:10.554Z,102.77
2022-09-05T10:35:21.045Z,101.77
2022-09-05T10:38:04.392Z,101.80
2022-09-05T10:41:19.735Z,102.37
2022-09-05T10:43:43.184Z,101.97
2022-09-05T10:46:51.478Z,101.80
2022-09-05T10:49:33.621Z,103.87
2022-09-05T10:52:47.899Z,104.17
2022-09-05T10:55:33.071Z,103.57
2022-09-05T10:58:31.852Z,101.37
2022-09-05T11:02:28.365Z,101.27
2022-09-05T11:04:52.985Z,100.30
2022-09-05T11:07:36.215Z,99.33
2022-09-05T11:10:17.695Z,98.97
2022-09-05T11:13:10.620Z,102.63
2022-09-05T11:16:33.517Z,103.40
2022-09-05T11:19:26.279Z,99.77
2022-09-05T11:22:10.335Z,102.07
2022-09-05T11:25:00.919Z,106.30
2022-09-05T11:27:46.437Z,103.60
2022-09-05T11:30:34.431Z,103.00
2022-09-05T11:39:46.070Z,105.27
2022-09-05T11:39:52.067Z,107.60
2022-09-05T11:40:38.186Z,112.40
2022-09-05T11:44:25.917Z,111.80
2022-09-05T11:47:31.790Z,109.57
2022-09-05T11:50:37.008Z,107.90
2022-09-05T11:53:46.245Z,104.37
2022-09-05T11:56:31.669Z,102.00
2022-09-05T12:00:32.482Z,100.30
2022-09-05T12:03:57.706Z,100.80
2022-09-05T12:06:57.309Z,103.57
2022-09-05T12:09:30.740Z,103.07
2022-09-05T12:12:38.926Z,103.37
2022-09-05T12:15:33.761Z,105.17
2022-09-05T12:18:21.603Z,106.87
2022-09-05T12:21:31.827Z,109.30
2022-09-05T12:25:27.218Z,109.47
2022-09-05T12:27:43.795Z,106.57
2022-09-05T12:30:24.947Z,104.37
2022-09-05T12:36:06.501Z,102.07
2022-09-05T12:40:21.417Z,101.60
2022-09-05T12:41:33.448Z,101.97
2022-09-05T12:44:01.269Z,101.00
2022-09-05T12:46:03.491Z,101.63
2022-09-05T12:48:48.654Z,102.17
2022-09-05T12:51:46.295Z,102.50
2022-09-05T12:54:34.615Z,105.03
2022-09-05T13:02:02.811Z,102.80
2022-09-05T13:02:58.565Z,102.00
2022-09-05T13:03:27.904Z,102.57
2022-09-05T13:06:05.524Z,102.07
2022-09-05T13:08:54.200Z,102.63
2022-09-05T13:14:58.079Z,103.90
2022-09-05T13:15:08.060Z,103.67
2022-09-05T13:18:10.118Z,104.50
2022-09-05T13:20:58.998Z,104.40
2022-09-05T13:23:47.556Z,105.60
2022-09-05T13:26:33.920Z,105.97
2022-09-05T13:29:19.638Z,105.47
2022-09-05T13:38:06.457Z,106.90
2022-09-05T13:38:10.750Z,105.33
2022-09-05T13:38:17.620Z,108.70
2022-09-05T13:41:00.015Z,111.67
2022-09-05T13:43:39.083Z,112.47
2022-09-05T13:46:16.942Z,115.00
2022-09-05T13:49:26.023Z,112.77
2022-09-05T13:52:29.767Z,112.17
2022-09-05T13:55:20.023Z,112.23
2022-09-05T13:57:57.395Z,111.30
2022-09-05T14:00:39.731Z,111.57
2022-09-05T14:04:06.592Z,112.40
2022-09-05T14:10:35.527Z,112.20
2022-09-05T14:13:11.493Z,113.77
2022-09-05T14:15:54.708Z,113.33
2022-09-05T14:18:58.992Z,112.90
2022-09-05T14:21:32.904Z,113.07
2022-09-05T14:24:13.180Z,113.07
2022-09-05T14:27:13.060Z,113.27
2022-09-05T14:29:52.243Z,114.10
2022-09-05T14:37:40.806Z,114.60
2022-09-05T14:37:41.056Z,114.57
2022-09-05T14:38:34.570Z,115.30
2022-09-05T14:42:07.354Z,116.07
2022-09-05T14:45:30.544Z,115.90
2022-09-05T14:48:30.451Z,115.30
2022-09-05T14:51:25.599Z,114.80
2022-09-05T15:02:43.393Z,113.20
2022-09-05T15:02:49.216Z,111.00
2022-09-05T15:06:39.720Z,109.60
2022-09-05T15:12:16.353Z,109.77
2022-09-05T15:12:38.568Z,109.97
2022-09-05T15:15:22.043Z,110.97
2022-09-05T15:18:17.521Z,111.47
2022-09-05T15:20:52.845Z,112.40
2022-09-05T15:23:26.093Z,112.60
2022-09-05T15:26:07.336Z,113.57
2022-09-05T15:28:42.184Z,114.30
2022-09-05T15:31:20.369Z,115.67
2022-09-05T15:33:50.530Z,115.33
2022-09-05T15:36:41.798Z,115.30
2022-09-05T15:39:31.906Z,115.10
2022-09-05T15:42:22.501Z,115.30
2022-09-05T15:45:09.691Z,113.70
2022-09-05T15:47:44.177Z,115.57
2022-09-05T15:50:22.549Z,115.50
2022-09-05T15:52:55.315Z,115.47
2022-09-05T15:55:27.412Z,115.00
2022-09-05T15:57:59.841Z,115.00
2022-09-05T16:00:33.795Z,115.17
2022-09-05T16:05:03.636Z,115.67
2022-09-05T16:10:30.708Z,115.70
2022-09-05T16:10:35.222Z,115.90
2022-09-05T16:12:13.578Z,115.27
2022-09-05T16:15:43.181Z,115.43
2022-09-05T16:23:15.407Z,115.40
2022-09-05T16:23:28.090Z,115.17
2022-09-05T16:23:52.897Z,116.17
2022-09-05T16:26:29.777Z,116.27
2022-09-05T16:29:12.094Z,115.87
2022-09-05T16:31:51.548Z,115.67
2022-09-05T16:34:46.930Z,115.50
2022-09-05T16:37:21.278Z,115.83
2022-09-05T16:40:09.838Z,115.50
2022-09-05T16:43:35.970Z,115.40
2022-09-05T16:46:38.178Z,115.50
2022-09-05T16:49:36.014Z,115.47
2022-09-05T16:52:17.305Z,115.77
2022-09-05T16:55:29.034Z,116.13
2022-09-05T16:58:14.790Z,115.83
2022-09-05T17:00:55.316Z,115.60
2022-09-05T17:03:57.836Z,116.13
2022-09-05T17:07:03.302Z,116.37
2022-09-05T17:09:43.784Z,116.10
2022-09-05T17:12:25.580Z,116.60
2022-09-05T17:15:18.249Z,116.07
2022-09-05T17:18:19.462Z,115.57
2022-09-05T17:20:56.983Z,117.23
2022-09-05T17:29:16.840Z,117.93
2022-09-05T17:29:28.940Z,116.77
2022-09-05T17:32:49.345Z,117.50
2022-09-05T17:35:52.004Z,117.60
2022-09-05T17:38:33.052Z,117.97
2022-09-05T17:41:24.192Z,119.07
2022-09-05T17:44:05.719Z,117.87
2022-09-05T17:46:46.308Z,119.67
2022-09-05T17:49:45.347Z,119.30
2022-09-05T17:52:17.349Z,120.60
2022-09-05T17:54:50.164Z,121.10
2022-09-05T17:57:33.180Z,121.23
2022-09-05T18:00:40.458Z,120.80
2022-09-05T18:03:08.059Z,120.50
2022-09-05T18:06:01.216Z,120.40
2022-09-05T18:08:47.973Z,120.63
2022-09-05T18:11:26.276Z,120.20
2022-09-05T18:14:24.426Z,120.90
2022-09-05T18:17:37.265Z,120.47
2022-09-05T18:20:22.401Z,119.80
2022-09-05T18:26:15.920Z,120.50
2022-09-05T18:29:02.488Z,120.40
2022-09-05T18:31:41.734Z,120.50
2022-09-05T18:34:19.209Z,120.60
2022-09-05T18:36:49.975Z,120.60
2022-09-05T18:39:39.562Z,120.00
2022-09-05T18:42:33.904Z,121.10
2022-09-05T18:45:28.460Z,120.80
2022-09-05T18:48:08.619Z,120.77
2022-09-05T18:50:44.437Z,120.80
2022-09-05T18:53:25.249Z,121.10
2022-09-05T18:57:26.319Z,121.30
2022-09-05T18:59:51.443Z,121.17
2022-09-05T19:02:51.379Z,121.50
2022-09-05T19:06:36.634Z,121.77
2022-09-05T19:09:08.567Z,121.67
2022-09-05T19:12:31.607Z,122.40
2022-09-05T19:15:14.942Z,122.27
2022-09-05T19:17:48.534Z,122.07
2022-09-05T19:20:33.041Z,121.60
2022-09-05T19:23:13.522Z,121.17
2022-09-05T19:25:47.015Z,121.67
2022-09-05T19:31:10.995Z,121.57
2022-09-05T19:36:51.929Z,121.27
2022-09-05T19:36:59.601Z,121.60
2022-09-05T19:37:30.253Z,121.90
2022-09-05T19:42:20.056Z,121.90
2022-09-05T19:47:30.684Z,121.93
2022-09-05T19:47:37.378Z,121.80
2022-09-05T19:48:35.323Z,121.80
2022-09-05T19:51:17.330Z,121.80
2022-09-05T19:54:03.757Z,122.40
2022-09-05T19:56:45.360Z,122.00
2022-09-05T19:59:34.288Z,122.03
2022-09-05T20:02:05.278Z,122.27
2022-09-05T20:04:44.539Z,122.53
2022-09-05T20:07:24.230Z,122.10
2022-09-05T20:09:54.582Z,122.07
2022-09-05T20:12:29.859Z,122.57
2022-09-05T20:15:18.311Z,122.60
2022-09-05T20:17:46.059Z,122.27
2022-09-05T20:20:22.239Z,123.20
2022-09-05T20:22:59.228Z,123.63
2022-09-05T20:25:35.860Z,123.43
2022-09-05T20:28:24.927Z,123.33
2022-09-05T20:30:57.245Z,122.73
2022-09-05T20:34:11.959Z,123.00
2022-09-05T20:42:52.461Z,123.47
2022-09-05T20:43:29.179Z,122.60
2022-09-05T20:43:31.633Z,122.50
2022-09-05T20:45:54.479Z,122.47
2022-09-05T20:54:08.975Z,122.73
2022-09-05T20:54:18.048Z,122.73
2022-09-05T20:54:31.674Z,122.33
2022-09-05T20:57:15.526Z,122.17
2022-09-05T20:59:44.592Z,122.50
2022-09-05T21:02:27.950Z,122.10
2022-09-05T21:05:20.816Z,122.50
2022-09-05T21:08:07.692Z,122.30
2022-09-05T21:10:54.966Z,122.10
2022-09-05T21:13:36.632Z,122.10
2022-09-05T21:16:21.091Z,121.60
2022-09-05T21:18:50.753Z,122.10
2022-09-05T21:21:36.544Z,122.10
2022-09-05T21:24:16.456Z,122.10
2022-09-05T21:26:44.773Z,121.90
2022-09-05T21:29:12.166Z,121.57
2022-09-05T21:31:46.300Z,121.77
2022-09-05T21:34:26.604Z,121.83
2022-09-05T21:37:07.304Z,121.77
2022-09-05T21:39:59.753Z,121.60
2022-09-05T21:47:33.453Z,122.20
2022-09-05T21:47:44.282Z,122.40
2022-09-05T21:48:14.891Z,121.90
2022-09-05T21:50:52.946Z,122.10
2022-09-05T21:55:35.643Z,122.03
2022-09-05T21:59:27.970Z,121.73
2022-09-05T21:59:36.534Z,121.73
2022-09-05T22:02:08.220Z,121.97
2022-09-05T22:04:41.087Z,122.10
2022-09-05T22:07:14.219Z,121.90
2022-09-05T22:09:41.813Z,122.20
2022-09-05T22:12:17.491Z,122.30
2022-09-05T22:15:26.246Z,122.07
2022-09-05T22:17:47.194Z,122.07
2022-09-05T22:20:20.147Z,122.43
2022-09-05T22:22:56.035Z,121.77
2022-09-05T22:25:30.822Z,122.30
2022-09-05T22:28:12.663Z,122.00
2022-09-05T22:30:40.001Z,122.30
2022-09-05T22:33:08.057Z,122.40
2022-09-05T22:35:38.905Z,122.50
2022-09-05T22:38:16.468Z,121.67
2022-09-05T22:40:47.892Z,122.00
2022-09-05T22:43:16.893Z,122.40
2022-09-05T22:45:43.909Z,122.00
2022-09-05T22:48:14.543Z,121.80
2022-09-05T22:50:43.134Z,122.63
2022-09-05T22:53:10.930Z,122.03
2022-09-05T22:55:41.528Z,122.10
2022-09-05T22:58:13.086Z,121.50
2022-09-05T23:00:41.618Z,121.17
2022-09-05T23:03:09.094Z,121.50
2022-09-05T23:05:36.689Z,121.90
2022-09-05T23:08:06.194Z,122.00
2022-09-05T23:10:35.902Z,122.00
2022-09-05T23:13:09.375Z,122.17
2022-09-05T23:15:38.253Z,121.70
2022-09-05T23:18:06.298Z,122.00
2022-09-05T23:20:34.391Z,122.03
2022-09-05T23:23:07.086Z,121.67
2022-09-05T23:25:37.099Z,122.00
2022-09-05T23:28:09.617Z,122.10
2022-09-05T23:30:38.734Z,122.23
2022-09-05T23:33:08.526Z,122.53
2022-09-05T23:35:37.043Z,122.30
2022-09-05T23:38:10.361Z,122.00
2022-09-05T23:40:39.011Z,122.03
2022-09-05T23:43:07.315Z,122.20
2022-09-05T23:45:35.071Z,122.00
2022-09-05T23:48:02.939Z,121.97
2022-09-05T23:50:31.458Z,121.83
2022-09-05T23:53:04.602Z,122.00
2022-09-05T23:55:32.671Z,121.77
2022-09-05T23:57:59.770Z,122.10
